N542SA PAYA-PAWD

Flight info

Callsign N542SA
Flight time N/A
Altitude 22000
Route YAK V319 MALAS
Aircraft LJ35/L-L/S

Departure

Time 2026-04-29 00:22
Airport Yakutat Airport (PAYA)

Arrival

Time N/A
Airport Seward Airport (PAWD)
Time Latitude Longitude Altitude Speed Heading
2026-04-29 00:14 59.50902 -139.66910 43 ft 0 kts 305°
2026-04-29 00:19 59.50895 -139.66894 43 ft 7 kts 329°
2026-04-29 00:19 59.50916 -139.66820 43 ft 16 kts 56°
2026-04-29 00:19 59.50974 -139.66604 43 ft 19 kts 106°
2026-04-29 00:19 59.50934 -139.66371 44 ft 12 kts 61°
2026-04-29 00:20 59.50944 -139.66346 43 ft 0 kts 39°
2026-04-29 00:20 59.50986 -139.66217 42 ft 25 kts 99°
2026-04-29 00:21 59.50860 -139.66094 42 ft 16 kts 219°
2026-04-29 00:21 59.50843 -139.66126 42 ft 0 kts 220°
2026-04-29 00:21 59.50645 -139.66517 44 ft 111 kts 225°
2026-04-29 00:21 59.49821 -139.68113 584 ft 201 kts 225°
2026-04-29 00:22 59.49155 -139.69518 1492 ft 227 kts 232°
2026-04-29 00:22 59.48627 -139.72471 2901 ft 232 kts 270°
2026-04-29 00:22 59.49461 -139.76440 5335 ft 249 kts 311°
2026-04-29 00:22 59.50370 -139.77873 6507 ft 255 kts 326°
2026-04-29 00:23 59.51872 -139.79804 8373 ft 260 kts 320°
2026-04-29 00:23 59.53182 -139.82348 10320 ft 269 kts 306°
2026-04-29 00:23 59.54200 -139.85456 12231 ft 270 kts 293°
2026-04-29 00:23 59.54996 -139.88804 14139 ft 270 kts 286°
2026-04-29 00:24 59.55684 -139.92292 15869 ft 274 kts 282°
2026-04-29 00:24 59.56325 -139.95894 17495 ft 280 kts 279°
2026-04-29 00:24 59.56953 -139.99580 18998 ft 285 kts 278°
2026-04-29 00:24 59.57572 -140.03280 20411 ft 290 kts 277°
2026-04-29 00:25 59.58209 -140.07105 21742 ft 295 kts 276°
2026-04-29 00:25 59.58871 -140.11198 22128 ft 332 kts 276°
2026-04-29 00:25 59.59611 -140.15831 22192 ft 371 kts 277°
2026-04-29 00:25 59.60426 -140.20785 22227 ft 389 kts 278°
2026-04-29 00:26 59.61289 -140.25884 22238 ft 392 kts 279°
2026-04-29 00:26 59.62153 -140.31011 22235 ft 394 kts 279°
2026-04-29 00:26 59.63009 -140.36157 22227 ft 395 kts 279°
2026-04-29 00:26 59.63864 -140.41340 22220 ft 397 kts 278°
2026-04-29 00:27 59.64708 -140.46487 22207 ft 398 kts 279°
2026-04-29 00:27 59.65560 -140.51709 22206 ft 398 kts 278°
2026-04-29 00:27 59.66326 -140.56967 22199 ft 396 kts 276°
2026-04-29 00:27 59.66939 -140.62255 22195 ft 393 kts 273°
2026-04-29 00:28 59.67423 -140.67577 22190 ft 392 kts 271°
2026-04-29 00:28 59.67874 -140.72825 22185 ft 392 kts 271°
2026-04-29 00:28 59.68337 -140.78177 22182 ft 393 kts 271°
2026-04-29 00:28 59.68797 -140.83518 22174 ft 394 kts 272°
2026-04-29 00:29 59.69256 -140.88883 22173 ft 395 kts 272°
2026-04-29 00:29 59.69707 -140.94198 22172 ft 395 kts 272°
2026-04-29 00:29 59.70162 -140.99585 22168 ft 396 kts 272°
2026-04-29 00:29 59.70613 -141.04973 22166 ft 397 kts 272°
2026-04-29 00:30 59.71064 -141.10394 22166 ft 397 kts 272°
2026-04-29 00:30 59.71512 -141.15800 22164 ft 398 kts 272°
2026-04-29 00:30 59.71953 -141.21157 22162 ft 398 kts 272°
2026-04-29 00:30 59.72398 -141.26582 22158 ft 399 kts 272°
2026-04-29 00:31 59.72843 -141.32045 22154 ft 400 kts 272°
2026-04-29 00:31 59.73284 -141.37491 22152 ft 401 kts 272°
2026-04-29 00:31 59.73726 -141.42966 22147 ft 402 kts 272°
2026-04-29 00:31 59.74166 -141.48461 22145 ft 402 kts 272°
2026-04-29 00:32 59.74597 -141.53871 22143 ft 403 kts 272°
2026-04-29 00:32 59.75033 -141.59376 22139 ft 404 kts 272°
2026-04-29 00:32 59.75467 -141.64891 22141 ft 404 kts 272°
2026-04-29 00:32 59.75899 -141.70413 22135 ft 405 kts 272°
2026-04-29 00:33 59.76325 -141.75870 22132 ft 405 kts 272°
2026-04-29 00:33 59.76755 -141.81408 22128 ft 405 kts 272°
2026-04-29 00:33 59.77183 -141.86968 22124 ft 406 kts 272°
2026-04-29 00:33 59.77609 -141.92514 22127 ft 407 kts 272°
2026-04-29 00:34 59.78032 -141.98076 22130 ft 407 kts 272°
2026-04-29 00:34 59.78449 -142.03565 22150 ft 406 kts 272°
2026-04-29 00:34 59.78868 -142.09137 22167 ft 406 kts 272°
2026-04-29 00:34 59.79286 -142.14720 22175 ft 410 kts 272°
2026-04-29 00:35 59.79703 -142.20348 22180 ft 412 kts 272°
2026-04-29 00:35 59.80120 -142.25996 22183 ft 414 kts 272°
2026-04-29 00:35 59.80533 -142.31619 22179 ft 416 kts 272°
2026-04-29 00:35 59.80951 -142.37326 22174 ft 417 kts 272°
2026-04-29 00:36 59.81367 -142.43043 22175 ft 417 kts 272°
2026-04-29 00:36 59.81780 -142.48766 22174 ft 418 kts 271°
2026-04-29 00:36 59.82187 -142.54419 22173 ft 418 kts 271°
2026-04-29 00:36 59.82595 -142.60141 22172 ft 418 kts 271°
2026-04-29 00:37 59.83001 -142.65866 22172 ft 418 kts 271°
2026-04-29 00:37 59.83405 -142.71596 22172 ft 419 kts 271°
2026-04-29 00:37 59.83807 -142.77342 22172 ft 419 kts 271°
2026-04-29 00:37 59.84206 -142.83093 22173 ft 419 kts 271°
2026-04-29 00:38 59.84603 -142.88847 22173 ft 419 kts 271°
2026-04-29 00:38 59.84993 -142.94537 22173 ft 419 kts 271°
2026-04-29 00:38 59.85385 -143.00293 22173 ft 419 kts 271°
2026-04-29 00:38 59.85775 -143.06053 22171 ft 419 kts 271°
2026-04-29 00:39 59.86162 -143.11818 22172 ft 419 kts 271°
2026-04-29 00:39 59.86547 -143.17586 22172 ft 419 kts 271°
2026-04-29 00:39 59.86925 -143.23275 22173 ft 419 kts 271°
2026-04-29 00:39 59.87304 -143.29049 22172 ft 420 kts 271°
2026-04-29 00:40 59.87681 -143.34817 22173 ft 420 kts 271°
2026-04-29 00:40 59.88057 -143.40608 22173 ft 421 kts 271°
2026-04-29 00:40 59.88431 -143.46403 22173 ft 421 kts 271°
2026-04-29 00:40 59.88799 -143.52139 22172 ft 421 kts 271°
2026-04-29 00:41 59.89168 -143.57958 22173 ft 422 kts 271°
2026-04-29 00:41 59.89534 -143.63756 22172 ft 422 kts 271°
2026-04-29 00:41 59.89899 -143.69572 22173 ft 422 kts 271°
2026-04-29 00:41 59.90260 -143.75368 22177 ft 423 kts 271°
2026-04-29 00:42 59.90620 -143.81205 22180 ft 423 kts 271°
2026-04-29 00:42 59.90974 -143.86969 22181 ft 423 kts 271°
2026-04-29 00:42 59.91328 -143.92790 22181 ft 423 kts 271°
2026-04-29 00:42 59.91681 -143.98639 22181 ft 423 kts 271°
2026-04-29 00:43 59.92027 -144.04414 22182 ft 423 kts 271°
2026-04-29 00:43 59.92375 -144.10244 22182 ft 423 kts 271°
2026-04-29 00:43 59.92720 -144.16100 22182 ft 423 kts 271°
2026-04-29 00:43 59.93062 -144.21932 22182 ft 423 kts 271°
2026-04-29 00:44 59.93399 -144.27731 22183 ft 424 kts 271°
2026-04-29 00:44 59.93737 -144.33585 22183 ft 424 kts 271°
2026-04-29 00:44 59.94072 -144.39437 22183 ft 424 kts 271°
2026-04-29 00:44 59.94404 -144.45289 22180 ft 424 kts 271°
2026-04-29 00:45 59.94732 -144.51128 22181 ft 423 kts 271°
2026-04-29 00:45 59.95059 -144.56965 22182 ft 423 kts 271°
2026-04-29 00:45 59.95382 -144.62802 22182 ft 423 kts 271°
2026-04-29 00:45 59.95704 -144.68650 22183 ft 423 kts 271°
2026-04-29 00:46 59.96018 -144.74405 22184 ft 423 kts 270°
2026-04-29 00:46 59.96334 -144.80248 22184 ft 422 kts 270°
2026-04-29 00:46 59.96647 -144.86091 22183 ft 422 kts 270°
2026-04-29 00:46 59.96956 -144.91920 22182 ft 422 kts 270°
2026-04-29 00:47 59.97264 -144.97756 22182 ft 423 kts 270°
2026-04-29 00:47 59.97570 -145.03619 22182 ft 423 kts 270°
2026-04-29 00:47 59.97873 -145.09470 22183 ft 423 kts 270°
2026-04-29 00:47 59.98168 -145.15234 22188 ft 423 kts 270°
2026-04-29 00:48 59.98464 -145.21093 22190 ft 423 kts 270°
2026-04-29 00:48 59.98554 -145.26929 22188 ft 418 kts 263°
2026-04-29 00:48 59.98420 -145.32741 22190 ft 419 kts 263°
2026-04-29 00:48 59.98338 -145.38571 22191 ft 419 kts 264°
2026-04-29 00:49 59.98270 -145.44409 22192 ft 420 kts 264°
2026-04-29 00:49 59.98201 -145.50177 22190 ft 420 kts 264°
2026-04-29 00:49 59.98126 -145.56029 22189 ft 421 kts 264°
2026-04-29 00:49 59.98043 -145.61890 22191 ft 422 kts 264°
2026-04-29 00:50 59.97953 -145.67757 22192 ft 423 kts 264°
2026-04-29 00:50 59.97855 -145.73646 22192 ft 424 kts 263°
2026-04-29 00:50 59.97736 -145.79338 21357 ft 429 kts 262°
2026-04-29 00:50 59.97620 -145.85123 20861 ft 402 kts 264°
2026-04-29 00:51 59.97541 -145.90551 20331 ft 380 kts 264°
2026-04-29 00:51 59.97465 -145.95730 19798 ft 365 kts 263°
2026-04-29 00:51 59.97383 -146.00745 19264 ft 362 kts 263°
2026-04-29 00:51 59.97284 -146.05859 18732 ft 372 kts 263°
2026-04-29 00:52 59.97180 -146.11062 18210 ft 379 kts 263°
2026-04-29 00:52 59.97073 -146.16304 17688 ft 383 kts 263°
2026-04-29 00:52 59.96964 -146.21650 17165 ft 386 kts 264°
2026-04-29 00:52 59.96854 -146.27013 16643 ft 387 kts 264°
2026-04-29 00:53 59.96742 -146.32386 16291 ft 387 kts 264°
2026-04-29 00:53 59.96618 -146.37987 16233 ft 419 kts 264°
2026-04-29 00:53 59.96490 -146.43775 16213 ft 409 kts 264°
2026-04-29 00:53 59.96372 -146.49372 16199 ft 398 kts 264°
2026-04-29 00:54 59.96252 -146.54837 16191 ft 391 kts 264°
2026-04-29 00:54 59.96131 -146.60217 16187 ft 386 kts 264°
2026-04-29 00:54 59.96009 -146.65477 16180 ft 382 kts 264°
2026-04-29 00:54 59.95882 -146.70765 16183 ft 379 kts 264°
2026-04-29 00:55 59.95753 -146.76022 16109 ft 380 kts 263°
2026-04-29 00:55 59.95621 -146.81309 16043 ft 380 kts 264°
2026-04-29 00:55 59.95489 -146.86561 16012 ft 378 kts 263°
2026-04-29 00:55 59.95356 -146.91740 15999 ft 377 kts 263°
2026-04-29 00:56 59.95220 -146.96987 15994 ft 377 kts 263°
2026-04-29 00:56 59.95082 -147.02211 15991 ft 376 kts 263°
2026-04-29 00:56 59.94942 -147.07418 15991 ft 376 kts 263°
2026-04-29 00:56 59.94800 -147.12630 15991 ft 375 kts 263°
2026-04-29 00:57 59.94655 -147.17818 15985 ft 384 kts 263°
2026-04-29 00:57 59.94501 -147.23214 15986 ft 394 kts 263°
2026-04-29 00:57 59.94342 -147.28725 15986 ft 401 kts 263°
2026-04-29 00:57 59.94181 -147.34307 15967 ft 397 kts 263°
2026-04-29 00:58 59.94024 -147.39824 15025 ft 415 kts 263°
2026-04-29 00:58 59.93866 -147.45256 14731 ft 363 kts 264°
2026-04-29 00:58 59.93738 -147.49959 14403 ft 328 kts 263°
2026-04-29 00:58 59.93614 -147.54329 13870 ft 303 kts 263°
2026-04-29 00:59 59.93492 -147.58407 13325 ft 285 kts 263°
2026-04-29 00:59 59.93371 -147.62271 12788 ft 272 kts 263°
2026-04-29 00:59 59.93252 -147.65933 12257 ft 262 kts 263°
2026-04-29 00:59 59.93135 -147.69510 11705 ft 254 kts 263°
2026-04-29 01:00 59.93019 -147.72991 11152 ft 248 kts 263°
2026-04-29 01:00 59.92908 -147.76394 10628 ft 244 kts 263°
2026-04-29 01:00 59.92798 -147.79746 10094 ft 240 kts 263°
2026-04-29 01:00 59.92688 -147.83044 9562 ft 237 kts 263°
2026-04-29 01:01 59.92580 -147.86308 9033 ft 235 kts 263°
2026-04-29 01:01 59.92472 -147.89549 8661 ft 239 kts 263°
2026-04-29 01:01 59.92352 -147.92974 8619 ft 258 kts 263°
2026-04-29 01:01 59.92225 -147.96627 8604 ft 268 kts 263°
2026-04-29 01:02 59.92095 -148.00411 8599 ft 276 kts 263°
2026-04-29 01:02 59.91965 -148.04269 8597 ft 283 kts 263°
2026-04-29 01:02 59.91827 -148.08240 8596 ft 291 kts 263°
2026-04-29 01:02 59.91684 -148.12334 8596 ft 311 kts 263°
2026-04-29 01:03 59.91523 -148.16827 8601 ft 339 kts 263°
2026-04-29 01:03 59.91375 -148.21571 8598 ft 312 kts 268°
2026-04-29 01:03 59.91848 -148.25333 8571 ft 276 kts 295°
2026-04-29 01:03 59.93104 -148.28161 8576 ft 272 kts 318°
2026-04-29 01:04 59.94617 -148.30386 8575 ft 266 kts 322°
2026-04-29 01:04 59.96125 -148.32420 8573 ft 264 kts 323°
2026-04-29 01:04 59.97655 -148.34419 8574 ft 262 kts 324°
2026-04-29 01:04 59.99186 -148.36393 8575 ft 261 kts 324°
2026-04-29 01:05 60.00714 -148.38350 8577 ft 261 kts 324°
2026-04-29 01:05 60.02256 -148.40321 8573 ft 264 kts 324°
2026-04-29 01:05 60.03812 -148.42313 8593 ft 266 kts 324°
2026-04-29 01:05 60.05367 -148.44286 8589 ft 269 kts 324°
2026-04-29 01:06 60.06950 -148.46324 8577 ft 270 kts 324°
2026-04-29 01:06 60.08540 -148.48378 8589 ft 274 kts 324°
2026-04-29 01:06 60.10154 -148.50487 8610 ft 278 kts 324°
2026-04-29 01:06 60.11779 -148.52636 8608 ft 281 kts 324°
2026-04-29 01:07 60.13420 -148.54809 8606 ft 283 kts 324°
2026-04-29 01:07 60.15061 -148.56942 8598 ft 285 kts 324°
2026-04-29 01:07 60.16730 -148.59101 8592 ft 286 kts 324°
2026-04-29 01:07 60.18407 -148.61284 8599 ft 287 kts 324°
2026-04-29 01:08 60.20090 -148.63485 8588 ft 288 kts 324°
2026-04-29 01:08 60.21767 -148.65686 8586 ft 288 kts 324°
2026-04-29 01:08 60.23448 -148.67897 8583 ft 289 kts 324°
2026-04-29 01:08 60.25130 -148.70112 8594 ft 289 kts 324°
2026-04-29 01:09 60.26799 -148.72311 8594 ft 291 kts 324°
2026-04-29 01:09 60.28494 -148.74551 8572 ft 291 kts 324°
2026-04-29 01:09 60.29635 -148.76058 8579 ft 291 kts 324°
2026-04-29 01:09 60.31885 -148.79029 8588 ft 291 kts 324°
2026-04-29 01:10 60.33572 -148.81273 8563 ft 290 kts 324°
2026-04-29 01:10 60.34692 -148.82768 8571 ft 290 kts 324°
2026-04-29 01:10 60.36373 -148.85009 8569 ft 290 kts 324°
2026-04-29 01:10 60.38606 -148.87991 8565 ft 290 kts 324°
2026-04-29 01:11 60.39741 -148.89509 8585 ft 290 kts 324°
2026-04-29 01:11 60.41426 -148.91763 8584 ft 291 kts 324°
2026-04-29 01:11 60.43115 -148.94020 8585 ft 291 kts 324°
2026-04-29 01:11 60.44784 -148.96258 8540 ft 290 kts 321°
2026-04-29 01:12 60.46367 -148.98740 8595 ft 285 kts 306°
2026-04-29 01:12 60.47262 -149.02230 8652 ft 278 kts 278°
2026-04-29 01:12 60.47350 -149.06100 8673 ft 274 kts 257°
2026-04-29 01:12 60.46766 -149.09759 8651 ft 273 kts 239°
2026-04-29 01:13 60.45864 -149.13123 8576 ft 276 kts 235°
2026-04-29 01:13 60.44898 -149.16530 8505 ft 279 kts 236°
2026-04-29 01:13 60.43962 -149.19942 8489 ft 273 kts 237°
2026-04-29 01:13 60.43071 -149.23290 8490 ft 261 kts 237°
2026-04-29 01:14 60.42295 -149.26327 8497 ft 230 kts 238°
2026-04-29 01:14 60.41614 -149.29071 8506 ft 206 kts 238°
2026-04-29 01:14 60.40989 -149.31591 8524 ft 199 kts 238°
2026-04-29 01:14 60.40367 -149.34055 8523 ft 193 kts 237°
2026-04-29 01:15 60.39762 -149.36424 8537 ft 185 kts 237°
2026-04-29 01:15 60.39199 -149.38651 8531 ft 169 kts 237°
2026-04-29 01:15 60.38698 -149.40645 8505 ft 153 kts 237°
2026-04-29 01:15 60.38236 -149.42484 8521 ft 139 kts 237°
2026-04-29 01:16 60.37613 -149.42995 6432 ft 127 kts 147°
2026-04-29 01:16 60.36311 -149.41740 4386 ft 205 kts 162°
2026-04-29 01:16 60.35005 -149.41322 3984 ft 183 kts 167°
2026-04-29 01:16 60.33716 -149.41327 3698 ft 195 kts 178°
2026-04-29 01:17 60.32333 -149.41304 3831 ft 202 kts 178°
2026-04-29 01:17 60.30907 -149.41362 3883 ft 207 kts 181°
2026-04-29 01:17 60.29571 -149.40675 3206 ft 206 kts 132°
2026-04-29 01:17 60.28491 -149.38891 2196 ft 194 kts 147°
2026-04-29 01:18 60.27290 -149.37803 1579 ft 193 kts 169°
2026-04-29 01:18 60.24781 -149.37120 1260 ft 174 kts 175°
2026-04-29 01:18 60.23596 -149.36857 1110 ft 168 kts 176°
2026-04-29 01:19 60.22422 -149.36827 984 ft 165 kts 180°
2026-04-29 01:19 60.21307 -149.37064 846 ft 160 kts 191°
2026-04-29 01:19 60.20198 -149.37725 780 ft 175 kts 199°
2026-04-29 01:19 60.19056 -149.38577 826 ft 172 kts 200°
2026-04-29 01:20 60.17979 -149.39557 809 ft 167 kts 207°
2026-04-29 01:20 60.17085 -149.41014 726 ft 164 kts 218°
2026-04-29 01:20 60.16238 -149.42125 549 ft 131 kts 205°
2026-04-29 01:20 60.15396 -149.42404 373 ft 123 kts 182°
2026-04-29 01:21 60.14496 -149.42305 352 ft 123 kts 177°
2026-04-29 01:21 60.13604 -149.42380 584 ft 152 kts 204°
2026-04-29 01:21 60.13076 -149.43791 1373 ft 141 kts 265°
2026-04-29 01:21 60.13870 -149.44780 1401 ft 168 kts 28°
2026-04-29 01:22 60.14035 -149.43120 692 ft 126 kts 135°
2026-04-29 01:22 60.13374 -149.42003 73 ft 113 kts 149°
2026-04-29 01:22 60.12968 -149.41344 123 ft 74 kts 298°